sensor_id;sensor_type;location;lat;lon;timestamp;P1;durP1;ratioP1;P2;durP2;ratioP2
54037;SDS011;39954;48.844;9.726;2022-12-07T00:00:44;68.28;;;19.58;;
54037;SDS011;39954;48.844;9.726;2022-12-07T00:02:38;76.50;;;21.60;;
54037;SDS011;39954;48.844;9.726;2022-12-07T00:04:24;82.63;;;22.35;;
54037;SDS011;39954;48.844;9.726;2022-12-07T00:06:09;69.25;;;20.17;;
54037;SDS011;39954;48.844;9.726;2022-12-07T00:10:02;69.55;;;19.77;;
54037;SDS011;39954;48.844;9.726;2022-12-07T00:11:32;81.03;;;23.63;;
54037;SDS011;39954;48.844;9.726;2022-12-07T00:13:08;63.80;;;19.27;;
54037;SDS011;39954;48.844;9.726;2022-12-07T00:14:32;73.60;;;20.40;;
54037;SDS011;39954;48.844;9.726;2022-12-07T00:16:03;160.27;;;20.98;;
54037;SDS011;39954;48.844;9.726;2022-12-07T00:17:22;195.93;;;21.83;;
54037;SDS011;39954;48.844;9.726;2022-12-07T00:18:58;151.23;;;21.23;;
54037;SDS011;39954;48.844;9.726;2022-12-07T00:20:10;131.48;;;20.17;;
54037;SDS011;39954;48.844;9.726;2022-12-07T00:21:40;110.45;;;19.55;;
54037;SDS011;39954;48.844;9.726;2022-12-07T00:23:24;542.35;;;34.40;;
54037;SDS011;39954;48.844;9.726;2022-12-07T00:25:20;778.45;;;35.83;;
54037;SDS011;39954;48.844;9.726;2022-12-07T00:27:05;427.13;;;29.00;;
54037;SDS011;39954;48.844;9.726;2022-12-07T00:28:57;188.43;;;21.80;;
54037;SDS011;39954;48.844;9.726;2022-12-07T00:30:28;75.18;;;19.98;;
54037;SDS011;39954;48.844;9.726;2022-12-07T00:31:50;612.17;;;37.72;;
54037;SDS011;39954;48.844;9.726;2022-12-07T00:33:20;74.85;;;21.40;;
54037;SDS011;39954;48.844;9.726;2022-12-07T00:34:53;63.58;;;18.83;;
54037;SDS011;39954;48.844;9.726;2022-12-07T00:36:17;399.20;;;31.10;;
54037;SDS011;39954;48.844;9.726;2022-12-07T00:37:41;733.45;;;36.63;;
54037;SDS011;39954;48.844;9.726;2022-12-07T00:39:04;791.58;;;38.80;;
54037;SDS011;39954;48.844;9.726;2022-12-07T00:40:26;545.28;;;31.63;;
54037;SDS011;39954;48.844;9.726;2022-12-07T00:41:37;159.95;;;21.15;;
54037;SDS011;39954;48.844;9.726;2022-12-07T00:43:03;85.88;;;19.90;;
54037;SDS011;39954;48.844;9.726;2022-12-07T00:44:41;75.25;;;21.95;;
54037;SDS011;39954;48.844;9.726;2022-12-07T00:46:09;68.15;;;20.45;;
54037;SDS011;39954;48.844;9.726;2022-12-07T00:47:44;71.18;;;20.80;;
54037;SDS011;39954;48.844;9.726;2022-12-07T00:49:06;71.10;;;22.15;;
54037;SDS011;39954;48.844;9.726;2022-12-07T00:50:47;85.90;;;23.10;;
54037;SDS011;39954;48.844;9.726;2022-12-07T00:52:18;75.57;;;22.13;;
54037;SDS011;39954;48.844;9.726;2022-12-07T00:54:04;68.97;;;21.92;;
54037;SDS011;39954;48.844;9.726;2022-12-07T00:55:51;74.38;;;23.27;;
54037;SDS011;39954;48.844;9.726;2022-12-07T00:57:10;82.50;;;24.13;;
54037;SDS011;39954;48.844;9.726;2022-12-07T00:58:15;87.88;;;24.00;;
54037;SDS011;39954;48.844;9.726;2022-12-07T00:59:18;82.72;;;24.65;;
54037;SDS011;39954;48.844;9.726;2022-12-07T01:00:23;90.03;;;25.35;;
54037;SDS011;39954;48.844;9.726;2022-12-07T01:01:26;97.78;;;25.25;;
54037;SDS011;39954;48.844;9.726;2022-12-07T01:02:33;77.35;;;24.23;;
54037;SDS011;39954;48.844;9.726;2022-12-07T01:03:35;82.53;;;24.27;;
54037;SDS011;39954;48.844;9.726;2022-12-07T01:04:42;75.55;;;23.40;;
54037;SDS011;39954;48.844;9.726;2022-12-07T01:05:50;81.45;;;25.05;;
54037;SDS011;39954;48.844;9.726;2022-12-07T01:06:53;67.80;;;22.52;;
54037;SDS011;39954;48.844;9.726;2022-12-07T01:07:58;76.72;;;22.88;;
54037;SDS011;39954;48.844;9.726;2022-12-07T01:09:01;81.72;;;23.15;;
54037;SDS011;39954;48.844;9.726;2022-12-07T01:10:10;68.38;;;20.38;;
54037;SDS011;39954;48.844;9.726;2022-12-07T01:11:14;67.13;;;19.95;;
54037;SDS011;39954;48.844;9.726;2022-12-07T01:12:20;79.85;;;21.65;;
54037;SDS011;39954;48.844;9.726;2022-12-07T01:13:22;81.03;;;20.98;;
54037;SDS011;39954;48.844;9.726;2022-12-07T01:14:28;90.75;;;23.23;;
54037;SDS011;39954;48.844;9.726;2022-12-07T01:15:30;128.27;;;28.73;;
54037;SDS011;39954;48.844;9.726;2022-12-07T01:16:35;70.03;;;22.65;;
54037;SDS011;39954;48.844;9.726;2022-12-07T01:17:40;66.03;;;22.05;;
54037;SDS011;39954;48.844;9.726;2022-12-07T01:18:45;57.50;;;20.58;;
54037;SDS011;39954;48.844;9.726;2022-12-07T01:19:50;63.05;;;21.05;;
54037;SDS011;39954;48.844;9.726;2022-12-07T01:20:59;68.70;;;22.98;;
54037;SDS011;39954;48.844;9.726;2022-12-07T01:22:05;60.85;;;20.08;;
54037;SDS011;39954;48.844;9.726;2022-12-07T01:23:11;61.42;;;21.08;;
54037;SDS011;39954;48.844;9.726;2022-12-07T01:24:13;75.50;;;23.73;;
54037;SDS011;39954;48.844;9.726;2022-12-07T01:25:21;63.05;;;20.67;;
54037;SDS011;39954;48.844;9.726;2022-12-07T01:26:24;82.55;;;22.40;;
54037;SDS011;39954;48.844;9.726;2022-12-07T01:27:29;100.10;;;25.40;;
54037;SDS011;39954;48.844;9.726;2022-12-07T01:28:32;79.15;;;22.10;;
54037;SDS011;39954;48.844;9.726;2022-12-07T01:29:38;68.05;;;21.13;;
54037;SDS011;39954;48.844;9.726;2022-12-07T01:30:40;76.78;;;22.73;;
54037;SDS011;39954;48.844;9.726;2022-12-07T01:31:47;67.20;;;21.23;;
54037;SDS011;39954;48.844;9.726;2022-12-07T01:32:50;57.15;;;20.25;;
54037;SDS011;39954;48.844;9.726;2022-12-07T01:33:57;107.75;;;27.30;;
54037;SDS011;39954;48.844;9.726;2022-12-07T01:35:00;59.22;;;19.63;;
54037;SDS011;39954;48.844;9.726;2022-12-07T01:36:06;59.40;;;19.70;;
54037;SDS011;39954;48.844;9.726;2022-12-07T01:37:09;86.32;;;23.90;;
54037;SDS011;39954;48.844;9.726;2022-12-07T01:38:14;73.60;;;21.08;;
54037;SDS011;39954;48.844;9.726;2022-12-07T01:39:17;76.38;;;21.27;;
54037;SDS011;39954;48.844;9.726;2022-12-07T01:40:24;105.68;;;26.17;;
54037;SDS011;39954;48.844;9.726;2022-12-07T01:41:28;84.20;;;22.67;;
54037;SDS011;39954;48.844;9.726;2022-12-07T01:42:35;61.53;;;20.35;;
54037;SDS011;39954;48.844;9.726;2022-12-07T01:44:06;77.20;;;22.25;;
54037;SDS011;39954;48.844;9.726;2022-12-07T01:46:49;77.28;;;21.55;;
54037;SDS011;39954;48.844;9.726;2022-12-07T01:47:53;62.03;;;19.55;;
54037;SDS011;39954;48.844;9.726;2022-12-07T01:49:01;54.70;;;20.85;;
54037;SDS011;39954;48.844;9.726;2022-12-07T01:50:06;80.25;;;23.02;;
54037;SDS011;39954;48.844;9.726;2022-12-07T01:51:12;62.17;;;20.42;;
54037;SDS011;39954;48.844;9.726;2022-12-07T01:52:17;74.07;;;21.25;;
54037;SDS011;39954;48.844;9.726;2022-12-07T01:53:26;90.22;;;23.63;;
54037;SDS011;39954;48.844;9.726;2022-12-07T01:54:31;59.63;;;20.63;;
54037;SDS011;39954;48.844;9.726;2022-12-07T01:55:41;56.38;;;19.38;;
54037;SDS011;39954;48.844;9.726;2022-12-07T01:56:49;62.13;;;20.35;;
54037;SDS011;39954;48.844;9.726;2022-12-07T01:57:56;70.35;;;21.33;;
54037;SDS011;39954;48.844;9.726;2022-12-07T01:58:58;60.83;;;21.00;;
54037;SDS011;39954;48.844;9.726;2022-12-07T02:00:07;64.70;;;20.90;;
54037;SDS011;39954;48.844;9.726;2022-12-07T02:01:10;62.85;;;20.73;;
54037;SDS011;39954;48.844;9.726;2022-12-07T02:02:17;76.78;;;22.17;;
54037;SDS011;39954;48.844;9.726;2022-12-07T02:03:22;84.30;;;23.17;;
54037;SDS011;39954;48.844;9.726;2022-12-07T02:04:31;89.97;;;22.95;;
54037;SDS011;39954;48.844;9.726;2022-12-07T02:05:34;70.03;;;21.20;;
54037;SDS011;39954;48.844;9.726;2022-12-07T02:06:41;85.28;;;25.00;;
54037;SDS011;39954;48.844;9.726;2022-12-07T02:07:46;70.03;;;21.55;;
54037;SDS011;39954;48.844;9.726;2022-12-07T02:08:52;63.63;;;21.67;;
54037;SDS011;39954;48.844;9.726;2022-12-07T02:09:55;83.80;;;24.98;;
54037;SDS011;39954;48.844;9.726;2022-12-07T02:11:04;65.82;;;20.95;;
54037;SDS011;39954;48.844;9.726;2022-12-07T02:12:09;66.47;;;22.25;;
54037;SDS011;39954;48.844;9.726;2022-12-07T02:13:14;97.95;;;25.80;;
54037;SDS011;39954;48.844;9.726;2022-12-07T02:14:19;80.22;;;24.13;;
54037;SDS011;39954;48.844;9.726;2022-12-07T02:15:25;74.28;;;22.45;;
54037;SDS011;39954;48.844;9.726;2022-12-07T02:16:37;86.13;;;23.83;;
54037;SDS011;39954;48.844;9.726;2022-12-07T02:17:52;67.10;;;22.17;;
54037;SDS011;39954;48.844;9.726;2022-12-07T02:19:08;66.97;;;22.52;;
54037;SDS011;39954;48.844;9.726;2022-12-07T02:20:29;72.43;;;22.83;;
54037;SDS011;39954;48.844;9.726;2022-12-07T02:21:36;68.40;;;23.13;;
54037;SDS011;39954;48.844;9.726;2022-12-07T02:22:52;66.35;;;22.25;;
54037;SDS011;39954;48.844;9.726;2022-12-07T02:24:18;63.95;;;20.95;;
54037;SDS011;39954;48.844;9.726;2022-12-07T02:25:33;87.63;;;23.20;;
54037;SDS011;39954;48.844;9.726;2022-12-07T02:27:10;71.60;;;22.15;;
54037;SDS011;39954;48.844;9.726;2022-12-07T02:28:33;73.03;;;21.38;;
54037;SDS011;39954;48.844;9.726;2022-12-07T02:29:41;66.50;;;19.60;;
54037;SDS011;39954;48.844;9.726;2022-12-07T02:30:51;82.60;;;21.55;;
54037;SDS011;39954;48.844;9.726;2022-12-07T02:31:59;76.40;;;21.50;;
54037;SDS011;39954;48.844;9.726;2022-12-07T02:33:11;65.20;;;19.98;;
54037;SDS011;39954;48.844;9.726;2022-12-07T02:34:21;71.97;;;20.65;;
54037;SDS011;39954;48.844;9.726;2022-12-07T02:35:34;83.13;;;22.90;;
54037;SDS011;39954;48.844;9.726;2022-12-07T02:36:42;65.38;;;20.00;;
54037;SDS011;39954;48.844;9.726;2022-12-07T02:37:58;61.83;;;19.65;;
54037;SDS011;39954;48.844;9.726;2022-12-07T02:39:14;80.53;;;20.27;;
54037;SDS011;39954;48.844;9.726;2022-12-07T02:40:21;84.28;;;22.73;;
54037;SDS011;39954;48.844;9.726;2022-12-07T02:41:31;73.38;;;22.05;;
54037;SDS011;39954;48.844;9.726;2022-12-07T02:42:38;52.42;;;19.98;;
54037;SDS011;39954;48.844;9.726;2022-12-07T02:43:47;73.10;;;22.60;;
54037;SDS011;39954;48.844;9.726;2022-12-07T02:44:56;64.82;;;20.33;;
54037;SDS011;39954;48.844;9.726;2022-12-07T02:46:06;67.70;;;19.42;;
54037;SDS011;39954;48.844;9.726;2022-12-07T02:47:13;79.40;;;22.75;;
54037;SDS011;39954;48.844;9.726;2022-12-07T02:48:21;69.40;;;20.92;;
54037;SDS011;39954;48.844;9.726;2022-12-07T02:49:29;78.43;;;22.85;;
54037;SDS011;39954;48.844;9.726;2022-12-07T02:50:35;148.23;;;31.25;;
54037;SDS011;39954;48.844;9.726;2022-12-07T02:51:41;62.65;;;21.02;;
54037;SDS011;39954;48.844;9.726;2022-12-07T02:52:45;77.93;;;21.45;;
54037;SDS011;39954;48.844;9.726;2022-12-07T02:53:50;65.80;;;20.42;;
54037;SDS011;39954;48.844;9.726;2022-12-07T02:54:53;77.60;;;22.42;;
54037;SDS011;39954;48.844;9.726;2022-12-07T02:55:58;80.55;;;22.15;;
54037;SDS011;39954;48.844;9.726;2022-12-07T02:57:03;70.75;;;21.23;;
54037;SDS011;39954;48.844;9.726;2022-12-07T02:58:23;62.55;;;20.38;;
54037;SDS011;39954;48.844;9.726;2022-12-07T02:59:40;68.20;;;19.95;;
54037;SDS011;39954;48.844;9.726;2022-12-07T03:00:58;70.47;;;20.80;;
54037;SDS011;39954;48.844;9.726;2022-12-07T03:02:14;77.10;;;21.95;;
54037;SDS011;39954;48.844;9.726;2022-12-07T03:03:25;74.57;;;20.63;;
54037;SDS011;39954;48.844;9.726;2022-12-07T03:04:33;78.95;;;22.98;;
54037;SDS011;39954;48.844;9.726;2022-12-07T03:05:48;64.65;;;21.45;;
54037;SDS011;39954;48.844;9.726;2022-12-07T03:07:05;85.55;;;23.80;;
54037;SDS011;39954;48.844;9.726;2022-12-07T03:08:13;73.07;;;21.77;;
54037;SDS011;39954;48.844;9.726;2022-12-07T03:09:27;86.47;;;23.27;;
54037;SDS011;39954;48.844;9.726;2022-12-07T03:10:35;74.60;;;22.83;;
54037;SDS011;39954;48.844;9.726;2022-12-07T03:11:45;64.80;;;20.60;;
54037;SDS011;39954;48.844;9.726;2022-12-07T03:12:53;77.55;;;22.90;;
54037;SDS011;39954;48.844;9.726;2022-12-07T03:14:08;62.45;;;21.73;;
54037;SDS011;39954;48.844;9.726;2022-12-07T03:15:18;59.58;;;20.83;;
54037;SDS011;39954;48.844;9.726;2022-12-07T03:16:33;80.10;;;23.45;;
54037;SDS011;39954;48.844;9.726;2022-12-07T03:17:40;79.18;;;23.17;;
54037;SDS011;39954;48.844;9.726;2022-12-07T03:18:49;66.60;;;21.48;;
54037;SDS011;39954;48.844;9.726;2022-12-07T03:19:57;70.05;;;22.15;;
54037;SDS011;39954;48.844;9.726;2022-12-07T03:21:06;80.32;;;23.60;;
54037;SDS011;39954;48.844;9.726;2022-12-07T03:22:13;74.20;;;22.15;;
54037;SDS011;39954;48.844;9.726;2022-12-07T03:23:19;83.18;;;23.10;;
54037;SDS011;39954;48.844;9.726;2022-12-07T03:24:26;84.47;;;23.48;;
54037;SDS011;39954;48.844;9.726;2022-12-07T03:25:35;74.70;;;23.08;;
54037;SDS011;39954;48.844;9.726;2022-12-07T03:26:42;75.45;;;22.65;;
54037;SDS011;39954;48.844;9.726;2022-12-07T03:27:53;69.53;;;22.10;;
54037;SDS011;39954;48.844;9.726;2022-12-07T03:28:58;76.88;;;23.45;;
54037;SDS011;39954;48.844;9.726;2022-12-07T03:30:08;78.80;;;25.45;;
54037;SDS011;39954;48.844;9.726;2022-12-07T03:31:16;77.63;;;23.15;;
54037;SDS011;39954;48.844;9.726;2022-12-07T03:32:27;78.25;;;23.58;;
54037;SDS011;39954;48.844;9.726;2022-12-07T03:33:36;80.95;;;24.50;;
54037;SDS011;39954;48.844;9.726;2022-12-07T03:34:47;79.47;;;24.15;;
54037;SDS011;39954;48.844;9.726;2022-12-07T03:35:57;97.70;;;23.98;;
54037;SDS011;39954;48.844;9.726;2022-12-07T03:37:05;90.32;;;26.42;;
54037;SDS011;39954;48.844;9.726;2022-12-07T03:38:14;82.47;;;24.08;;
54037;SDS011;39954;48.844;9.726;2022-12-07T03:39:23;84.60;;;23.08;;
54037;SDS011;39954;48.844;9.726;2022-12-07T03:40:32;80.05;;;23.58;;
54037;SDS011;39954;48.844;9.726;2022-12-07T03:41:41;78.50;;;23.45;;
54037;SDS011;39954;48.844;9.726;2022-12-07T03:42:46;82.80;;;24.58;;
54037;SDS011;39954;48.844;9.726;2022-12-07T03:43:53;84.95;;;25.52;;
54037;SDS011;39954;48.844;9.726;2022-12-07T03:44:57;86.47;;;24.05;;
54037;SDS011;39954;48.844;9.726;2022-12-07T03:46:06;78.75;;;23.00;;
54037;SDS011;39954;48.844;9.726;2022-12-07T03:47:16;77.28;;;23.27;;
54037;SDS011;39954;48.844;9.726;2022-12-07T03:48:34;91.43;;;25.20;;
54037;SDS011;39954;48.844;9.726;2022-12-07T03:49:43;85.57;;;24.15;;
54037;SDS011;39954;48.844;9.726;2022-12-07T03:50:55;79.82;;;22.33;;
54037;SDS011;39954;48.844;9.726;2022-12-07T03:52:08;66.28;;;22.08;;
54037;SDS011;39954;48.844;9.726;2022-12-07T03:53:18;93.90;;;24.10;;
54037;SDS011;39954;48.844;9.726;2022-12-07T03:54:29;125.35;;;27.67;;
54037;SDS011;39954;48.844;9.726;2022-12-07T03:55:35;109.03;;;25.08;;
54037;SDS011;39954;48.844;9.726;2022-12-07T03:56:45;104.82;;;24.23;;
54037;SDS011;39954;48.844;9.726;2022-12-07T03:57:49;89.97;;;23.33;;
54037;SDS011;39954;48.844;9.726;2022-12-07T03:58:57;107.97;;;24.20;;
54037;SDS011;39954;48.844;9.726;2022-12-07T04:00:00;87.70;;;22.88;;
54037;SDS011;39954;48.844;9.726;2022-12-07T04:01:08;99.47;;;24.83;;
54037;SDS011;39954;48.844;9.726;2022-12-07T04:02:11;109.80;;;26.23;;
54037;SDS011;39954;48.844;9.726;2022-12-07T04:03:18;107.25;;;25.55;;
54037;SDS011;39954;48.844;9.726;2022-12-07T04:04:23;98.93;;;25.17;;
54037;SDS011;39954;48.844;9.726;2022-12-07T04:05:29;118.95;;;26.10;;
54037;SDS011;39954;48.844;9.726;2022-12-07T04:06:32;113.80;;;26.45;;
54037;SDS011;39954;48.844;9.726;2022-12-07T04:07:37;103.30;;;25.63;;
54037;SDS011;39954;48.844;9.726;2022-12-07T04:08:40;113.55;;;25.38;;
54037;SDS011;39954;48.844;9.726;2022-12-07T04:09:45;107.20;;;25.65;;
54037;SDS011;39954;48.844;9.726;2022-12-07T04:10:47;113.80;;;25.95;;
54037;SDS011;39954;48.844;9.726;2022-12-07T04:11:52;111.40;;;25.77;;
54037;SDS011;39954;48.844;9.726;2022-12-07T04:12:55;96.85;;;24.63;;
54037;SDS011;39954;48.844;9.726;2022-12-07T04:14:00;122.57;;;26.60;;
54037;SDS011;39954;48.844;9.726;2022-12-07T04:15:17;101.93;;;25.67;;
54037;SDS011;39954;48.844;9.726;2022-12-07T04:16:22;113.07;;;27.88;;
54037;SDS011;39954;48.844;9.726;2022-12-07T04:17:25;114.00;;;27.45;;
54037;SDS011;39954;48.844;9.726;2022-12-07T04:18:30;140.88;;;29.27;;
54037;SDS011;39954;48.844;9.726;2022-12-07T04:19:35;119.43;;;28.17;;
54037;SDS011;39954;48.844;9.726;2022-12-07T04:20:40;103.65;;;25.92;;
54037;SDS011;39954;48.844;9.726;2022-12-07T04:21:42;108.75;;;26.25;;
54037;SDS011;39954;48.844;9.726;2022-12-07T04:22:48;119.70;;;26.58;;
54037;SDS011;39954;48.844;9.726;2022-12-07T04:23:50;108.03;;;25.27;;
54037;SDS011;39954;48.844;9.726;2022-12-07T04:24:55;89.80;;;24.45;;
54037;SDS011;39954;48.844;9.726;2022-12-07T04:25:57;119.57;;;27.63;;
54037;SDS011;39954;48.844;9.726;2022-12-07T04:27:02;109.38;;;27.83;;
54037;SDS011;39954;48.844;9.726;2022-12-07T04:28:05;100.93;;;27.15;;
54037;SDS011;39954;48.844;9.726;2022-12-07T04:29:10;110.00;;;29.33;;
54037;SDS011;39954;48.844;9.726;2022-12-07T04:30:13;104.40;;;26.58;;
54037;SDS011;39954;48.844;9.726;2022-12-07T04:31:18;114.82;;;30.25;;
54037;SDS011;39954;48.844;9.726;2022-12-07T04:32:21;121.13;;;29.88;;
54037;SDS011;39954;48.844;9.726;2022-12-07T04:33:26;128.23;;;30.13;;
54037;SDS011;39954;48.844;9.726;2022-12-07T04:34:29;121.70;;;29.42;;
54037;SDS011;39954;48.844;9.726;2022-12-07T04:35:37;118.45;;;28.33;;
54037;SDS011;39954;48.844;9.726;2022-12-07T04:36:39;107.25;;;27.90;;
54037;SDS011;39954;48.844;9.726;2022-12-07T04:37:44;118.70;;;27.70;;
54037;SDS011;39954;48.844;9.726;2022-12-07T04:38:47;117.97;;;28.90;;
54037;SDS011;39954;48.844;9.726;2022-12-07T04:39:52;134.75;;;29.63;;
54037;SDS011;39954;48.844;9.726;2022-12-07T04:40:55;131.55;;;29.85;;
54037;SDS011;39954;48.844;9.726;2022-12-07T04:42:00;120.25;;;28.85;;
54037;SDS011;39954;48.844;9.726;2022-12-07T04:43:02;116.40;;;26.88;;
54037;SDS011;39954;48.844;9.726;2022-12-07T04:44:08;136.90;;;28.83;;
54037;SDS011;39954;48.844;9.726;2022-12-07T04:45:10;126.97;;;28.17;;
54037;SDS011;39954;48.844;9.726;2022-12-07T04:46:15;105.93;;;26.27;;
54037;SDS011;39954;48.844;9.726;2022-12-07T04:47:17;109.53;;;26.40;;
54037;SDS011;39954;48.844;9.726;2022-12-07T04:48:22;132.55;;;28.48;;
54037;SDS011;39954;48.844;9.726;2022-12-07T04:49:25;128.13;;;28.23;;
54037;SDS011;39954;48.844;9.726;2022-12-07T04:50:30;149.73;;;30.17;;
54037;SDS011;39954;48.844;9.726;2022-12-07T04:51:35;173.27;;;31.65;;
54037;SDS011;39954;48.844;9.726;2022-12-07T04:52:40;136.45;;;28.38;;
54037;SDS011;39954;48.844;9.726;2022-12-07T04:53:42;131.13;;;28.23;;
54037;SDS011;39954;48.844;9.726;2022-12-07T04:54:48;147.18;;;31.73;;
54037;SDS011;39954;48.844;9.726;2022-12-07T04:55:50;173.77;;;33.38;;
54037;SDS011;39954;48.844;9.726;2022-12-07T04:56:55;150.00;;;29.85;;
54037;SDS011;39954;48.844;9.726;2022-12-07T04:57:58;152.05;;;30.33;;
54037;SDS011;39954;48.844;9.726;2022-12-07T04:59:03;146.15;;;30.50;;
54037;SDS011;39954;48.844;9.726;2022-12-07T05:00:07;158.93;;;34.22;;
54037;SDS011;39954;48.844;9.726;2022-12-07T05:01:13;164.93;;;34.28;;
54037;SDS011;39954;48.844;9.726;2022-12-07T05:02:16;173.48;;;33.75;;
54037;SDS011;39954;48.844;9.726;2022-12-07T05:03:21;176.63;;;34.00;;
54037;SDS011;39954;48.844;9.726;2022-12-07T05:04:24;170.45;;;34.47;;
54037;SDS011;39954;48.844;9.726;2022-12-07T05:05:29;185.07;;;35.92;;
54037;SDS011;39954;48.844;9.726;2022-12-07T05:06:31;207.65;;;35.22;;
54037;SDS011;39954;48.844;9.726;2022-12-07T05:07:39;357.88;;;37.25;;
54037;SDS011;39954;48.844;9.726;2022-12-07T05:08:42;177.77;;;34.25;;
54037;SDS011;39954;48.844;9.726;2022-12-07T05:09:47;370.00;;;43.47;;
54037;SDS011;39954;48.844;9.726;2022-12-07T05:10:52;272.85;;;38.25;;
54037;SDS011;39954;48.844;9.726;2022-12-07T05:11:54;203.13;;;36.45;;
54037;SDS011;39954;48.844;9.726;2022-12-07T05:12:59;186.02;;;34.67;;
54037;SDS011;39954;48.844;9.726;2022-12-07T05:14:02;207.35;;;37.63;;
54037;SDS011;39954;48.844;9.726;2022-12-07T05:15:09;230.35;;;35.13;;
54037;SDS011;39954;48.844;9.726;2022-12-07T05:16:14;171.27;;;34.35;;
54037;SDS011;39954;48.844;9.726;2022-12-07T05:17:17;713.38;;;52.72;;
54037;SDS011;39954;48.844;9.726;2022-12-07T05:18:22;228.43;;;35.65;;
54037;SDS011;39954;48.844;9.726;2022-12-07T05:19:25;280.25;;;37.95;;
54037;SDS011;39954;48.844;9.726;2022-12-07T05:20:30;219.57;;;37.13;;
54037;SDS011;39954;48.844;9.726;2022-12-07T05:21:39;195.45;;;35.53;;
54037;SDS011;39954;48.844;9.726;2022-12-07T05:22:44;305.35;;;39.42;;
54037;SDS011;39954;48.844;9.726;2022-12-07T05:23:47;221.20;;;36.35;;
54037;SDS011;39954;48.844;9.726;2022-12-07T05:24:52;377.05;;;44.53;;
54037;SDS011;39954;48.844;9.726;2022-12-07T05:25:54;365.75;;;42.38;;
54037;SDS011;39954;48.844;9.726;2022-12-07T05:27:00;433.20;;;41.15;;
54037;SDS011;39954;48.844;9.726;2022-12-07T05:28:03;225.82;;;38.90;;
54037;SDS011;39954;48.844;9.726;2022-12-07T05:29:10;175.82;;;35.78;;
54037;SDS011;39954;48.844;9.726;2022-12-07T05:30:13;168.20;;;35.35;;
54037;SDS011;39954;48.844;9.726;2022-12-07T05:31:19;149.68;;;33.40;;
54037;SDS011;39954;48.844;9.726;2022-12-07T05:32:22;172.52;;;35.67;;
54037;SDS011;39954;48.844;9.726;2022-12-07T05:33:28;146.02;;;31.60;;
54037;SDS011;39954;48.844;9.726;2022-12-07T05:34:30;164.48;;;32.67;;
54037;SDS011;39954;48.844;9.726;2022-12-07T05:35:35;187.93;;;36.47;;
54037;SDS011;39954;48.844;9.726;2022-12-07T05:36:42;158.13;;;33.35;;
54037;SDS011;39954;48.844;9.726;2022-12-07T05:37:47;156.95;;;33.75;;
54037;SDS011;39954;48.844;9.726;2022-12-07T05:38:49;167.50;;;35.30;;
54037;SDS011;39954;48.844;9.726;2022-12-07T05:39:54;167.00;;;34.05;;
54037;SDS011;39954;48.844;9.726;2022-12-07T05:41:00;173.02;;;34.40;;
54037;SDS011;39954;48.844;9.726;2022-12-07T05:42:03;172.68;;;34.58;;
54037;SDS011;39954;48.844;9.726;2022-12-07T05:43:18;153.35;;;32.60;;
54037;SDS011;39954;48.844;9.726;2022-12-07T05:44:21;136.18;;;29.38;;
54037;SDS011;39954;48.844;9.726;2022-12-07T05:45:26;147.13;;;32.28;;
54037;SDS011;39954;48.844;9.726;2022-12-07T05:46:31;154.48;;;33.10;;
54037;SDS011;39954;48.844;9.726;2022-12-07T05:47:34;135.35;;;32.75;;
54037;SDS011;39954;48.844;9.726;2022-12-07T05:48:40;124.93;;;29.88;;
54037;SDS011;39954;48.844;9.726;2022-12-07T05:49:42;136.52;;;31.05;;
54037;SDS011;39954;48.844;9.726;2022-12-07T05:50:47;139.77;;;29.95;;
54037;SDS011;39954;48.844;9.726;2022-12-07T05:51:52;120.18;;;30.23;;
54037;SDS011;39954;48.844;9.726;2022-12-07T05:52:57;125.13;;;29.00;;
54037;SDS011;39954;48.844;9.726;2022-12-07T05:54:00;129.35;;;30.52;;
54037;SDS011;39954;48.844;9.726;2022-12-07T05:55:06;123.85;;;30.75;;
54037;SDS011;39954;48.844;9.726;2022-12-07T05:56:11;138.10;;;31.67;;
54037;SDS011;39954;48.844;9.726;2022-12-07T05:57:14;134.07;;;30.73;;
54037;SDS011;39954;48.844;9.726;2022-12-07T05:58:19;139.07;;;31.27;;
54037;SDS011;39954;48.844;9.726;2022-12-07T05:59:36;163.00;;;32.53;;
54037;SDS011;39954;48.844;9.726;2022-12-07T06:00:39;163.30;;;32.72;;
54037;SDS011;39954;48.844;9.726;2022-12-07T06:01:41;126.13;;;29.45;;
54037;SDS011;39954;48.844;9.726;2022-12-07T06:02:46;140.52;;;31.27;;
54037;SDS011;39954;48.844;9.726;2022-12-07T06:03:51;131.13;;;29.20;;
54037;SDS011;39954;48.844;9.726;2022-12-07T06:04:54;134.35;;;29.90;;
54037;SDS011;39954;48.844;9.726;2022-12-07T06:05:59;133.95;;;30.35;;
54037;SDS011;39954;48.844;9.726;2022-12-07T06:07:04;146.15;;;32.78;;
54037;SDS011;39954;48.844;9.726;2022-12-07T06:08:10;123.07;;;29.05;;
54037;SDS011;39954;48.844;9.726;2022-12-07T06:09:13;124.72;;;29.40;;
54037;SDS011;39954;48.844;9.726;2022-12-07T06:10:19;128.82;;;29.13;;
54037;SDS011;39954;48.844;9.726;2022-12-07T06:11:22;129.07;;;29.08;;
54037;SDS011;39954;48.844;9.726;2022-12-07T06:12:39;215.63;;;40.65;;
54037;SDS011;39954;48.844;9.726;2022-12-07T06:13:47;116.35;;;29.95;;
54037;SDS011;39954;48.844;9.726;2022-12-07T06:14:49;122.55;;;30.58;;
54037;SDS011;39954;48.844;9.726;2022-12-07T06:15:55;120.10;;;28.40;;
54037;SDS011;39954;48.844;9.726;2022-12-07T06:16:58;107.63;;;27.25;;
54037;SDS011;39954;48.844;9.726;2022-12-07T06:18:03;116.25;;;27.23;;
54037;SDS011;39954;48.844;9.726;2022-12-07T06:19:05;108.40;;;26.63;;
54037;SDS011;39954;48.844;9.726;2022-12-07T06:20:10;118.93;;;27.65;;
54037;SDS011;39954;48.844;9.726;2022-12-07T06:21:15;95.50;;;26.63;;
54037;SDS011;39954;48.844;9.726;2022-12-07T06:22:20;122.25;;;26.92;;
54037;SDS011;39954;48.844;9.726;2022-12-07T06:23:25;91.80;;;26.80;;
54037;SDS011;39954;48.844;9.726;2022-12-07T06:24:28;129.02;;;29.88;;
54037;SDS011;39954;48.844;9.726;2022-12-07T06:25:33;139.63;;;29.17;;
54037;SDS011;39954;48.844;9.726;2022-12-07T06:26:35;120.90;;;29.33;;
54037;SDS011;39954;48.844;9.726;2022-12-07T06:27:40;97.00;;;27.73;;
54037;SDS011;39954;48.844;9.726;2022-12-07T06:28:43;98.63;;;27.38;;
54037;SDS011;39954;48.844;9.726;2022-12-07T06:29:48;100.40;;;27.15;;
54037;SDS011;39954;48.844;9.726;2022-12-07T06:30:56;111.22;;;29.10;;
54037;SDS011;39954;48.844;9.726;2022-12-07T06:31:59;99.95;;;26.25;;
54037;SDS011;39954;48.844;9.726;2022-12-07T06:33:04;106.20;;;27.65;;
54037;SDS011;39954;48.844;9.726;2022-12-07T06:34:09;83.78;;;24.98;;
54037;SDS011;39954;48.844;9.726;2022-12-07T06:35:16;104.50;;;27.48;;
54037;SDS011;39954;48.844;9.726;2022-12-07T06:36:21;123.32;;;29.75;;
54037;SDS011;39954;48.844;9.726;2022-12-07T06:37:30;154.95;;;30.40;;
54037;SDS011;39954;48.844;9.726;2022-12-07T06:38:35;167.85;;;36.70;;
54037;SDS011;39954;48.844;9.726;2022-12-07T06:41:03;98.57;;;24.55;;
54037;SDS011;39954;48.844;9.726;2022-12-07T06:42:06;105.60;;;25.70;;
54037;SDS011;39954;48.844;9.726;2022-12-07T06:43:11;112.50;;;26.65;;
54037;SDS011;39954;48.844;9.726;2022-12-07T06:44:14;108.10;;;26.20;;
54037;SDS011;39954;48.844;9.726;2022-12-07T06:45:19;96.93;;;24.77;;
54037;SDS011;39954;48.844;9.726;2022-12-07T06:46:22;127.15;;;27.63;;
54037;SDS011;39954;48.844;9.726;2022-12-07T06:47:28;126.80;;;27.02;;